Time;durP1;ratioP1;P1;durP2;ratioP2;P2;SDS_P1;SDS_P2;PMS_P1;PMS_P2;Temp;Humidity;BMP_temperature;BMP_pressure;BME280_temperature;BME280_humidity;BME280_pressure;Samples;Min_cycle;Max_cycle;Signal;HPM_P1;HPM_P2
2021/07/14 00:02:03;;;;;;;0.10;0.10;;;15.50;99.90;;;;;;5032021;28;20035;-87
2021/07/14 00:04:29;;;;;;;0.20;0.20;;;15.60;99.90;;;;;;5038807;28;20098;-87
2021/07/14 00:06:55;;;;;;;0.30;0.30;;;15.60;99.90;;;;;;5035609;28;20484;-87
2021/07/14 00:09:20;;;;;;;0.00;0.00;;;15.50;99.90;;;;;;5037710;28;20037;-88
2021/07/14 00:11:56;;;;;;;0.10;0.10;;;15.50;99.90;;;;;;5034089;28;20087;-88
2021/07/14 00:22:19;;;;;;;0.05;0.05;;;15.60;99.90;;;;;;5034852;28;20443;-88
2021/07/14 00:24:45;;;;;;;0.00;0.00;;;15.60;99.90;;;;;;5040912;28;20502;-88
2021/07/14 00:27:12;;;;;;;0.03;0.03;;;15.60;99.90;;;;;;5044680;28;20117;-87
2021/07/14 00:29:50;;;;;;;0.17;0.17;;;15.60;99.90;;;;;;5041180;28;20107;-87
2021/07/14 00:32:16;;;;;;;0.20;0.20;;;15.60;99.90;;;;;;5040295;28;20033;-87
2021/07/14 00:34:42;;;;;;;0.00;0.00;;;15.60;99.90;;;;;;5039200;28;20025;-88
2021/07/14 00:37:08;;;;;;;0.10;0.10;;;15.60;99.90;;;;;;5036354;28;20033;-88
2021/07/14 00:39:33;;;;;;;0.20;0.17;;;15.60;99.90;;;;;;5039996;28;20090;-87
2021/07/14 00:41:59;;;;;;;0.10;0.10;;;15.60;99.90;;;;;;5036593;28;20044;-87
2021/07/14 00:44:25;;;;;;;0.20;0.20;;;15.60;99.90;;;;;;5029705;28;20071;-87
2021/07/14 00:46:53;;;;;;;0.10;0.10;;;15.60;99.90;;;;;;5044823;28;20036;-87
2021/07/14 00:49:19;;;;;;;0.13;0.13;;;15.60;99.90;;;;;;5040120;28;20493;-88
2021/07/14 00:51:48;;;;;;;0.20;0.20;;;15.60;99.90;;;;;;5034469;28;20030;-88
2021/07/14 00:54:15;;;;;;;0.22;0.22;;;15.50;99.90;;;;;;5038657;28;20045;-88
2021/07/14 00:56:40;;;;;;;0.10;0.10;;;15.50;99.90;;;;;;5041099;28;20025;-88
2021/07/14 00:59:06;;;;;;;0.23;0.23;;;15.50;99.90;;;;;;5040596;28;20086;-89
2021/07/14 01:01:34;;;;;;;0.10;0.10;;;15.50;99.90;;;;;;5034062;28;20112;-89
2021/07/14 01:04:27;;;;;;;0.13;0.08;;;15.50;99.90;;;;;;5033572;28;20268;-88
2021/07/14 01:07:25;;;;;;;0.22;0.10;;;15.50;99.90;;;;;;5030980;28;20037;-89
2021/07/14 01:10:13;;;;;;;0.10;0.10;;;15.50;99.90;;;;;;5052977;28;20024;-89
2021/07/14 01:13:04;;;;;;;0.00;0.00;;;15.60;99.90;;;;;;5029901;28;20030;-87
2021/07/14 01:15:36;;;;;;;0.15;0.15;;;15.50;99.90;;;;;;5038015;28;20029;-88
2021/07/14 01:18:29;;;;;;;0.10;0.10;;;15.60;99.90;;;;;;5043349;28;20028;-88
2021/07/14 01:21:03;;;;;;;0.47;0.20;;;15.60;99.90;;;;;;5043280;28;20044;-88
2021/07/14 01:23:54;;;;;;;0.00;0.00;;;15.60;99.90;;;;;;5031653;28;20458;-88
2021/07/14 01:26:27;;;;;;;0.20;0.20;;;15.60;99.90;;;;;;5037947;28;20064;-88
2021/07/14 01:28:55;;;;;;;0.22;0.22;;;15.60;99.90;;;;;;5040905;28;20056;-88
2021/07/14 01:31:24;;;;;;;0.20;0.20;;;15.60;99.90;;;;;;5031513;28;20025;-87
2021/07/14 01:33:59;;;;;;;0.10;0.10;;;15.60;99.90;;;;;;5037516;28;20026;-88
2021/07/14 01:36:28;;;;;;;0.10;0.10;;;15.60;99.90;;;;;;5039800;28;20041;-88
2021/07/14 01:38:59;;;;;;;0.03;0.03;;;15.60;99.90;;;;;;5032920;28;20025;-88
2021/07/14 01:41:33;;;;;;;0.20;0.20;;;15.60;99.90;;;;;;5038161;28;20028;-88
2021/07/14 01:44:01;;;;;;;0.22;0.22;;;15.60;99.90;;;;;;5032547;28;20037;-88
2021/07/14 01:46:31;;;;;;;0.15;0.15;;;15.60;99.90;;;;;;5042090;28;20025;-88
2021/07/14 01:49:07;;;;;;;0.20;0.20;;;15.70;99.90;;;;;;5038568;28;20511;-87
2021/07/14 01:51:39;;;;;;;0.00;0.00;;;15.60;99.90;;;;;;5038673;28;20443;-88
2021/07/14 01:54:07;;;;;;;0.30;0.30;;;15.60;99.90;;;;;;5039642;28;20095;-88
2021/07/14 01:56:40;;;;;;;0.30;0.30;;;15.60;99.90;;;;;;5038363;28;20033;-88
2021/07/14 01:59:08;;;;;;;0.25;0.25;;;15.60;99.90;;;;;;5044700;28;20098;-88
2021/07/14 02:01:40;;;;;;;0.10;0.10;;;15.60;99.90;;;;;;5037813;28;20029;-89
2021/07/14 02:06:57;;;;;;;0.00;0.00;;;15.70;99.90;;;;;;5032894;28;20135;-88
2021/07/14 02:09:23;;;;;;;0.13;0.10;;;15.60;99.90;;;;;;5035082;28;20037;-88
2021/07/14 02:11:53;;;;;;;0.10;0.10;;;15.70;99.90;;;;;;5031933;28;20037;-88
2021/07/14 02:14:24;;;;;;;0.00;0.00;;;15.70;99.90;;;;;;5036614;28;20034;-88
2021/07/14 02:16:50;;;;;;;0.00;0.00;;;15.70;99.90;;;;;;5034061;28;20545;-88
2021/07/14 02:19:19;;;;;;;0.10;0.10;;;15.70;99.90;;;;;;5032356;28;20029;-88
2021/07/14 02:21:45;;;;;;;0.10;0.10;;;15.70;99.90;;;;;;5036596;28;20122;-87
2021/07/14 02:24:12;;;;;;;0.03;0.03;;;15.70;99.90;;;;;;5031744;28;20075;-88
2021/07/14 02:26:41;;;;;;;0.00;0.00;;;15.70;99.90;;;;;;5037578;28;20027;-88
2021/07/14 02:29:07;;;;;;;0.55;0.20;;;15.70;99.90;;;;;;5047770;28;20028;-88
2021/07/14 02:31:33;;;;;;;0.20;0.20;;;15.70;99.90;;;;;;5033613;28;20122;-88
2021/07/14 02:34:01;;;;;;;0.10;0.10;;;15.70;99.90;;;;;;5035680;28;20045;-89
2021/07/14 02:36:31;;;;;;;0.30;0.30;;;15.70;99.90;;;;;;5035903;28;20029;-89
2021/07/14 02:39:02;;;;;;;1.45;0.73;;;15.70;99.90;;;;;;5036248;28;20033;-88
2021/07/14 02:41:36;;;;;;;0.15;0.15;;;15.70;99.90;;;;;;5034712;28;20049;-88
2021/07/14 02:44:07;;;;;;;0.05;0.05;;;15.80;99.90;;;;;;5041282;28;20025;-88
2021/07/14 02:46:41;;;;;;;0.20;0.20;;;15.80;99.90;;;;;;5038839;28;20866;-89
2021/07/14 02:49:10;;;;;;;0.10;0.10;;;15.80;99.90;;;;;;5031341;28;20405;-88
2021/07/14 02:51:37;;;;;;;0.20;0.20;;;15.70;99.90;;;;;;5033424;28;20053;-89
2021/07/14 02:54:09;;;;;;;0.32;0.32;;;15.80;99.90;;;;;;5029776;28;20029;-88
2021/07/14 02:56:36;;;;;;;0.90;0.90;;;15.80;99.90;;;;;;5036918;28;20119;-89
2021/07/14 02:59:06;;;;;;;0.32;0.32;;;15.80;99.90;;;;;;5037011;28;20110;-88
2021/07/14 03:01:38;;;;;;;0.40;0.40;;;15.70;99.90;;;;;;5039864;28;20020;-89
2021/07/14 03:04:05;;;;;;;0.30;0.30;;;15.80;99.90;;;;;;5041845;28;20033;-90
2021/07/14 03:06:38;;;;;;;0.30;0.30;;;15.80;99.90;;;;;;5028907;28;20438;-88
2021/07/14 03:09:05;;;;;;;0.65;0.65;;;15.80;99.90;;;;;;5037738;28;20040;-89
2021/07/14 03:11:33;;;;;;;;;;;15.80;99.90;;;;;;5044040;28;20497;-89
2021/07/14 03:13:59;;;;;;;0.22;0.20;;;15.80;99.90;;;;;;5040328;28;19913;-89
2021/07/14 03:16:26;;;;;;;0.60;0.60;;;15.80;99.90;;;;;;5042122;28;20072;-89
2021/07/14 03:18:52;;;;;;;0.30;0.30;;;15.90;99.90;;;;;;5040091;28;20384;-89
2021/07/14 03:21:19;;;;;;;6.03;0.90;;;15.80;99.90;;;;;;5034473;28;20108;-89
2021/07/14 03:23:46;;;;;;;;;;;15.80;99.90;;;;;;5031932;28;20049;-89
2021/07/14 03:26:14;;;;;;;0.52;0.52;;;15.90;99.90;;;;;;5028516;28;19909;-89
2021/07/14 03:28:40;;;;;;;0.32;0.32;;;15.90;99.90;;;;;;5037520;28;20040;-89
2021/07/14 03:31:08;;;;;;;0.10;0.10;;;15.90;99.90;;;;;;5042625;28;20453;-87
2021/07/14 03:33:34;;;;;;;0.30;0.30;;;15.90;99.90;;;;;;5036098;28;20032;-89
2021/07/14 03:36:04;;;;;;;0.20;0.20;;;15.90;99.90;;;;;;5034040;28;20033;-88
2021/07/14 03:38:32;;;;;;;0.65;0.55;;;15.90;99.90;;;;;;5036051;28;20036;-89
2021/07/14 03:40:59;;;;;;;0.10;0.10;;;15.80;99.90;;;;;;5037645;28;20039;-89
2021/07/14 03:43:26;;;;;;;0.57;0.57;;;15.90;99.90;;;;;;5045866;28;20022;-89
2021/07/14 03:45:53;;;;;;;0.40;0.40;;;15.90;99.90;;;;;;5042320;28;20086;-88
2021/07/14 03:48:21;;;;;;;;;;;15.90;99.90;;;;;;5036246;28;20025;-90
2021/07/14 03:50:52;;;;;;;0.63;0.55;;;15.90;99.90;;;;;;5040034;28;19904;-89
2021/07/14 03:53:20;;;;;;;0.63;0.57;;;15.90;99.90;;;;;;5039707;28;20029;-88
2021/07/14 03:55:47;;;;;;;0.25;0.25;;;15.90;99.90;;;;;;5036795;28;20528;-89
2021/07/14 03:58:14;;;;;;;1.48;0.63;;;15.90;99.90;;;;;;5031565;28;20068;-89
2021/07/14 04:00:40;;;;;;;0.35;0.35;;;15.90;99.90;;;;;;5048044;28;20013;-89
2021/07/14 04:03:09;;;;;;;0.45;0.45;;;15.90;99.90;;;;;;5050352;28;20068;-90
2021/07/14 04:05:42;;;;;;;0.30;0.30;;;15.90;99.90;;;;;;5041816;28;20029;-90
2021/07/14 04:08:14;;;;;;;0.40;0.40;;;15.90;99.90;;;;;;5038963;28;20531;-89
2021/07/14 04:10:40;;;;;;;0.68;0.65;;;15.90;99.90;;;;;;5039474;28;20040;-90
2021/07/14 04:13:05;;;;;;;0.70;0.70;;;15.90;99.90;;;;;;5030640;28;20062;-88
2021/07/14 04:15:33;;;;;;;1.37;1.27;;;15.90;99.90;;;;;;5038341;28;20037;-89
2021/07/14 04:17:59;;;;;;;0.60;0.60;;;15.90;99.90;;;;;;5041180;28;20033;-89
2021/07/14 04:20:25;;;;;;;0.67;0.50;;;15.90;99.90;;;;;;5037570;28;20552;-90
2021/07/14 04:22:51;;;;;;;0.50;0.50;;;15.90;99.90;;;;;;5042688;28;20078;-88
2021/07/14 04:25:16;;;;;;;0.40;0.40;;;15.90;99.90;;;;;;5042709;28;20276;-89
2021/07/14 04:27:42;;;;;;;1.03;1.03;;;15.90;99.90;;;;;;5033655;28;20037;-89
2021/07/14 04:30:09;;;;;;;0.83;0.70;;;16.00;99.90;;;;;;5044690;28;20036;-89
2021/07/14 04:32:34;;;;;;;1.00;0.95;;;15.90;99.90;;;;;;5050183;28;20041;-89
2021/07/14 04:35:00;;;;;;;0.33;0.33;;;15.90;99.90;;;;;;5043469;28;20095;-89
2021/07/14 04:37:26;;;;;;;0.90;0.87;;;15.90;99.90;;;;;;5033319;28;20116;-89
2021/07/14 04:39:52;;;;;;;2.90;1.60;;;15.90;99.90;;;;;;5036195;28;20035;-89
2021/07/14 04:42:17;;;;;;;0.40;0.40;;;16.00;99.90;;;;;;5035799;28;20044;-89
2021/07/14 04:44:51;;;;;;;1.23;1.07;;;15.90;99.90;;;;;;5042531;28;20025;-91
2021/07/14 04:47:17;;;;;;;0.50;0.50;;;15.90;99.90;;;;;;5048310;28;20029;-91
2021/07/14 04:49:43;;;;;;;1.58;1.48;;;16.00;99.90;;;;;;5042505;28;20053;-89
2021/07/14 04:52:09;;;;;;;1.47;1.37;;;15.90;99.90;;;;;;5038744;28;20497;-90
2021/07/14 04:54:35;;;;;;;0.40;0.40;;;15.90;99.90;;;;;;5038253;28;20080;-90
2021/07/14 04:57:01;;;;;;;2.90;1.55;;;15.90;99.90;;;;;;5037732;28;20033;-88
2021/07/14 04:59:27;;;;;;;0.63;0.63;;;16.00;99.90;;;;;;5039088;28;20074;-89
2021/07/14 05:01:53;;;;;;;2.37;0.70;;;16.00;99.90;;;;;;5039420;28;20053;-89
2021/07/14 05:04:19;;;;;;;0.20;0.20;;;16.00;99.90;;;;;;5035337;28;20021;-88
2021/07/14 05:06:45;;;;;;;0.43;0.43;;;16.00;99.90;;;;;;5033421;28;20033;-88
2021/07/14 05:09:11;;;;;;;4.10;0.95;;;16.00;99.90;;;;;;5034695;28;20030;-88
2021/07/14 05:11:37;;;;;;;1.80;1.07;;;15.90;99.90;;;;;;5031214;28;20040;-89
2021/07/14 05:14:04;;;;;;;0.87;0.87;;;16.00;99.90;;;;;;5037429;28;20432;-90
2021/07/14 05:16:29;;;;;;;0.90;0.63;;;15.90;99.90;;;;;;5038553;28;20029;-89
2021/07/14 05:18:55;;;;;;;3.63;1.67;;;15.90;99.90;;;;;;5042622;28;20040;-89
2021/07/14 05:21:21;;;;;;;0.53;0.53;;;15.90;99.90;;;;;;5035998;28;20033;-89
2021/07/14 05:23:47;;;;;;;1.47;1.40;;;16.00;99.90;;;;;;5031338;28;20025;-90
2021/07/14 05:26:13;;;;;;;0.93;0.83;;;15.90;99.90;;;;;;5035805;28;20064;-90
2021/07/14 05:28:39;;;;;;;2.97;1.40;;;16.00;99.90;;;;;;5041073;28;20022;-91
2021/07/14 05:31:05;;;;;;;2.73;2.27;;;16.00;99.90;;;;;;5031313;28;20032;-90
2021/07/14 05:33:30;;;;;;;1.45;1.35;;;15.90;99.90;;;;;;5036727;28;20707;-88
2021/07/14 05:35:57;;;;;;;0.57;0.57;;;15.90;99.90;;;;;;5044278;28;20029;-91
2021/07/14 05:38:24;;;;;;;1.67;1.52;;;15.90;99.90;;;;;;5028824;28;20704;-91
2021/07/14 05:40:50;;;;;;;;;;;15.90;99.90;;;;;;5043647;28;20033;-90
2021/07/14 05:43:17;;;;;;;0.65;0.65;;;15.90;99.90;;;;;;5044131;28;19916;-90
2021/07/14 05:45:43;;;;;;;1.00;0.90;;;15.90;99.90;;;;;;5035974;28;20041;-89
2021/07/14 05:48:09;;;;;;;1.83;0.93;;;15.90;99.90;;;;;;5037089;28;20140;-90
2021/07/14 05:50:35;;;;;;;2.63;0.73;;;16.00;99.90;;;;;;5046273;28;20294;-90
2021/07/14 05:53:01;;;;;;;1.10;1.08;;;15.90;99.90;;;;;;5032707;28;20054;-90
2021/07/14 05:55:27;;;;;;;1.27;0.90;;;16.00;99.90;;;;;;5032355;28;20136;-89
2021/07/14 05:57:53;;;;;;;3.07;1.17;;;16.00;99.90;;;;;;5037012;28;20029;-89
2021/07/14 06:00:19;;;;;;;1.38;0.85;;;16.00;99.90;;;;;;5033446;28;20109;-89
2021/07/14 06:02:45;;;;;;;8.13;1.13;;;15.90;99.90;;;;;;5038988;28;20585;-88
2021/07/14 06:05:12;;;;;;;0.70;0.70;;;15.90;99.90;;;;;;5032349;28;20576;-87
2021/07/14 06:07:38;;;;;;;10.20;2.80;;;15.90;99.90;;;;;;5041953;28;20048;-88
2021/07/14 06:10:06;;;;;;;0.70;0.70;;;15.90;99.90;;;;;;5033483;28;20496;-85
2021/07/14 06:12:32;;;;;;;0.75;0.75;;;15.90;99.90;;;;;;5036482;28;20029;-85
2021/07/14 06:14:58;;;;;;;3.10;2.63;;;15.90;99.90;;;;;;5042807;28;20537;-85
2021/07/14 06:17:23;;;;;;;0.90;0.87;;;16.00;99.90;;;;;;5043785;28;20032;-85
2021/07/14 06:19:49;;;;;;;3.10;0.67;;;16.00;99.90;;;;;;5046416;28;20063;-85
2021/07/14 06:22:15;;;;;;;4.10;1.20;;;16.00;99.90;;;;;;5028552;28;20053;-87
2021/07/14 06:24:41;;;;;;;0.60;0.60;;;16.00;99.90;;;;;;5029217;28;20025;-88
2021/07/14 06:27:07;;;;;;;2.10;1.00;;;16.00;99.90;;;;;;5027557;28;20570;-86
2021/07/14 06:29:33;;;;;;;2.25;0.75;;;16.00;99.90;;;;;;5033195;28;20025;-87
2021/07/14 06:32:00;;;;;;;1.00;1.00;;;16.00;99.90;;;;;;5029298;28;20417;-87
2021/07/14 06:34:26;;;;;;;1.42;1.33;;;16.00;99.90;;;;;;5029110;28;20030;-86
2021/07/14 06:36:51;;;;;;;0.93;0.90;;;16.00;99.90;;;;;;5029459;28;20033;-87
2021/07/14 06:39:17;;;;;;;0.50;0.50;;;16.10;99.90;;;;;;5027797;28;20321;-88
2021/07/14 06:41:43;;;;;;;0.30;0.30;;;16.20;99.90;;;;;;5027971;28;20052;-87
2021/07/14 06:44:09;;;;;;;1.53;1.20;;;16.10;99.90;;;;;;5029671;28;20025;-88
2021/07/14 06:46:35;;;;;;;0.40;0.40;;;16.10;99.90;;;;;;5029353;28;20878;-87
2021/07/14 06:49:02;;;;;;;0.80;0.80;;;16.20;99.90;;;;;;5029434;28;20030;-87
2021/07/14 06:51:29;;;;;;;0.45;0.45;;;16.30;99.90;;;;;;5027804;28;20409;-87
2021/07/14 06:53:55;;;;;;;0.88;0.75;;;16.30;99.90;;;;;;5035433;28;20519;-87
2021/07/14 06:56:22;;;;;;;1.13;1.13;;;16.40;99.90;;;;;;5030121;28;20065;-87
2021/07/14 06:58:48;;;;;;;1.50;1.40;;;16.50;99.90;;;;;;5032319;28;20028;-88
2021/07/14 07:01:15;;;;;;;0.70;0.70;;;16.50;99.90;;;;;;5031412;28;20049;-87
2021/07/14 07:03:41;;;;;;;;;;;16.70;99.90;;;;;;5029871;28;20111;-87
2021/07/14 07:06:07;;;;;;;1.10;0.90;;;17.10;99.90;;;;;;5028196;28;20043;-88
2021/07/14 07:08:34;;;;;;;0.57;0.57;;;17.20;99.90;;;;;;5033682;28;20052;-87
2021/07/14 07:11:00;;;;;;;0.20;0.20;;;17.20;99.90;;;;;;5036851;28;20038;-87
2021/07/14 07:13:27;;;;;;;0.80;0.80;;;16.90;99.90;;;;;;5033440;28;20062;-86
2021/07/14 07:15:53;;;;;;;0.13;0.13;;;17.10;99.90;;;;;;5038550;28;20025;-86
2021/07/14 07:18:21;;;;;;;1.30;1.20;;;17.00;99.90;;;;;;5046801;28;20087;-85
2021/07/14 07:20:48;;;;;;;0.43;0.43;;;17.10;99.90;;;;;;5037616;28;20075;-85
2021/07/14 07:23:14;;;;;;;0.63;0.63;;;17.00;99.90;;;;;;5038250;28;20124;-84
2021/07/14 07:25:41;;;;;;;0.82;0.82;;;17.20;99.90;;;;;;5035650;28;20037;-84
2021/07/14 07:28:19;;;;;;;0.43;0.43;;;17.30;99.90;;;;;;5037751;28;20037;-84
2021/07/14 07:30:45;;;;;;;0.73;0.45;;;18.10;99.90;;;;;;5040044;28;20050;-85
2021/07/14 07:33:15;;;;;;;0.23;0.23;;;18.30;99.90;;;;;;5043146;28;20029;-85
2021/07/14 07:35:44;;;;;;;0.75;0.68;;;17.70;99.90;;;;;;5042155;28;20024;-85
2021/07/14 07:38:10;;;;;;;0.90;0.77;;;17.50;99.90;;;;;;5039370;28;20037;-85
2021/07/14 07:40:36;;;;;;;0.70;0.70;;;17.00;99.90;;;;;;5036206;28;20047;-86
2021/07/14 07:43:02;;;;;;;0.20;0.20;;;17.00;99.90;;;;;;5048410;28;20729;-85
2021/07/14 07:45:28;;;;;;;0.40;0.40;;;17.00;99.90;;;;;;5043031;28;20033;-86
2021/07/14 07:47:53;;;;;;;0.20;0.20;;;17.20;99.90;;;;;;5035664;28;20025;-86
2021/07/14 07:50:19;;;;;;;0.37;0.37;;;17.40;99.90;;;;;;5032610;28;20036;-86
2021/07/14 07:52:45;;;;;;;0.97;0.60;;;17.30;99.90;;;;;;5046000;28;20416;-86
2021/07/14 07:55:14;;;;;;;0.33;0.33;;;17.00;99.90;;;;;;5039100;28;20052;-86
2021/07/14 07:57:41;;;;;;;0.38;0.38;;;16.80;99.90;;;;;;5040827;28;20056;-86
2021/07/14 08:00:14;;;;;;;0.47;0.47;;;16.70;99.90;;;;;;5041760;28;20049;-86
2021/07/14 08:02:44;;;;;;;0.63;0.63;;;16.70;99.90;;;;;;5029988;28;20029;-87
2021/07/14 08:05:10;;;;;;;0.10;0.10;;;16.70;99.90;;;;;;5038333;28;20152;-86
2021/07/14 08:07:36;;;;;;;2.08;0.38;;;16.80;99.90;;;;;;5031982;28;20059;-85
2021/07/14 08:10:05;;;;;;;1.40;0.40;;;17.30;99.90;;;;;;5039335;28;20114;-86
2021/07/14 08:12:31;;;;;;;1.33;1.23;;;17.60;99.90;;;;;;5039567;28;20093;-86
2021/07/14 08:14:58;;;;;;;0.03;0.03;;;18.30;99.90;;;;;;5049436;28;20029;-88
2021/07/14 08:17:24;;;;;;;0.73;0.70;;;18.10;99.90;;;;;;5037289;28;20126;-87
2021/07/14 08:19:52;;;;;;;0.40;0.40;;;18.20;99.90;;;;;;5034673;28;20025;-86
2021/07/14 08:22:18;;;;;;;2.45;0.82;;;17.90;99.90;;;;;;5030779;28;20511;-87
2021/07/14 08:24:44;;;;;;;1.08;0.98;;;17.90;99.90;;;;;;5036104;28;20504;-87
2021/07/14 08:27:10;;;;;;;0.63;0.63;;;18.00;99.90;;;;;;5045777;28;20031;-88
2021/07/14 08:29:36;;;;;;;1.93;0.27;;;18.00;99.90;;;;;;5049719;28;20408;-87
2021/07/14 08:32:02;;;;;;;1.15;0.82;;;18.80;99.90;;;;;;5039990;28;20059;-86
2021/07/14 08:34:28;;;;;;;3.22;1.80;;;18.50;99.90;;;;;;5032026;28;20026;-88
2021/07/14 08:36:54;;;;;;;0.40;0.40;;;21.10;99.90;;;;;;5031261;28;20060;-87
2021/07/14 08:39:20;;;;;;;0.77;0.43;;;20.40;99.90;;;;;;5047105;28;20503;-93
2021/07/14 08:41:48;;;;;;;0.30;0.30;;;20.20;99.90;;;;;;5046328;28;20033;-93
2021/07/14 08:44:14;;;;;;;0.43;0.43;;;19.20;99.90;;;;;;5034172;28;20033;-89
2021/07/14 08:46:41;;;;;;;0.60;0.47;;;18.70;99.90;;;;;;5052060;28;20029;-89
2021/07/14 08:49:07;;;;;;;0.38;0.38;;;18.40;99.90;;;;;;5033454;28;20037;-90
2021/07/14 08:51:34;;;;;;;0.50;0.40;;;18.00;99.90;;;;;;5037415;28;20034;-88
2021/07/14 08:54:00;;;;;;;;;;;17.50;99.90;;;;;;5042426;28;20033;-89
2021/07/14 08:56:27;;;;;;;1.10;0.93;;;18.00;99.90;;;;;;5043297;28;20257;-89
2021/07/14 08:58:52;;;;;;;;;;;18.10;99.90;;;;;;5042757;28;20029;-92
2021/07/14 09:01:18;;;;;;;0.10;0.10;;;18.50;99.90;;;;;;5030901;28;19905;-90
2021/07/14 09:03:44;;;;;;;0.43;0.30;;;18.40;99.90;;;;;;5031570;28;20025;-88
2021/07/14 09:06:10;;;;;;;0.43;0.43;;;18.50;99.90;;;;;;5031189;28;20652;-89
2021/07/14 09:08:37;;;;;;;0.77;0.40;;;18.70;99.90;;;;;;5048792;28;20033;-89
2021/07/14 09:11:04;;;;;;;1.55;1.02;;;19.10;99.90;;;;;;5044415;28;20053;-89
2021/07/14 09:13:36;;;;;;;1.95;0.70;;;19.90;99.90;;;;;;5034950;28;20068;-89
2021/07/14 09:16:02;;;;;;;0.10;0.10;;;20.60;99.90;;;;;;5040940;28;20405;-89
2021/07/14 09:18:29;;;;;;;0.55;0.45;;;21.00;99.90;;;;;;5042615;28;20032;-92
2021/07/14 09:20:59;;;;;;;2.22;0.98;;;21.30;99.90;;;;;;5036058;28;20128;-91
2021/07/14 09:23:32;;;;;;;0.35;0.30;;;20.80;99.90;;;;;;5031546;28;20547;-90
2021/07/14 09:26:00;;;;;;;1.10;0.30;;;23.50;99.90;;;;;;5035294;28;20021;-92
2021/07/14 09:28:33;;;;;;;3.33;1.08;;;23.30;99.90;;;;;;5029709;28;20489;-89
2021/07/14 09:31:01;;;;;;;0.93;0.82;;;22.90;99.90;;;;;;5030298;28;20035;-88
2021/07/14 09:33:27;;;;;;;0.52;0.52;;;21.60;99.90;;;;;;5030634;28;20034;-89
2021/07/14 09:35:54;;;;;;;2.63;0.38;;;19.60;99.90;;;;;;5028719;28;20099;-88
2021/07/14 09:38:40;;;;;;;0.20;0.20;;;19.30;99.90;;;;;;5031356;28;20528;-90
2021/07/14 09:41:11;;;;;;;0.22;0.22;;;18.70;99.90;;;;;;5048712;28;20029;-88
2021/07/14 09:43:42;;;;;;;0.10;0.10;;;18.60;99.90;;;;;;5031961;28;20037;-86
2021/07/14 09:46:17;;;;;;;0.38;0.38;;;18.60;99.90;;;;;;5042542;28;20174;-87
2021/07/14 09:48:47;;;;;;;0.30;0.30;;;20.90;99.90;;;;;;5040526;28;20040;-88
2021/07/14 09:51:22;;;;;;;0.20;0.20;;;21.60;99.90;;;;;;5046609;28;20037;-90
2021/07/14 09:53:49;;;;;;;0.43;0.43;;;21.20;99.90;;;;;;5027911;28;20083;-88
2021/07/14 09:56:27;;;;;;;;;;;19.20;99.90;;;;;;5028491;28;20033;-88
2021/07/14 09:59:14;;;;;;;0.10;0.10;;;18.50;99.90;;;;;;5035069;28;20007;-87
2021/07/14 10:01:46;;;;;;;0.55;0.20;;;19.30;99.90;;;;;;5046563;28;20021;-87
2021/07/14 10:04:19;;;;;;;0.25;0.25;;;23.00;99.90;;;;;;5037697;28;20683;-88
2021/07/14 10:06:45;;;;;;;0.20;0.20;;;20.70;99.90;;;;;;5041517;28;20045;-88
2021/07/14 10:09:22;;;;;;;0.20;0.17;;;20.40;99.90;;;;;;5038935;28;20163;-87
2021/07/14 10:11:49;;;;;;;0.10;0.10;;;19.30;99.90;;;;;;5036272;28;20033;-86
2021/07/14 10:14:15;;;;;;;0.32;0.32;;;20.30;99.90;;;;;;5034856;28;20037;-88
2021/07/14 10:16:42;;;;;;;0.17;0.17;;;19.60;99.90;;;;;;5031468;28;20087;-88
2021/07/14 10:19:12;;;;;;;0.10;0.10;;;18.90;99.90;;;;;;5036420;28;20021;-88
2021/07/14 10:21:44;;;;;;;0.80;0.70;;;19.00;99.90;;;;;;5045595;28;20145;-87
2021/07/14 10:24:12;;;;;;;0.47;0.45;;;18.30;99.90;;;;;;5041339;28;20032;-87
2021/07/14 10:26:40;;;;;;;0.17;0.17;;;18.00;1.00;;;;;;5032494;28;20033;-86
2021/07/14 10:29:06;;;;;;;0.22;0.22;;;18.60;99.90;;;;;;5029486;28;20026;-87
2021/07/14 10:31:34;;;;;;;0.08;0.08;;;18.40;99.90;;;;;;5030159;28;20036;-87
2021/07/14 10:34:07;;;;;;;0.20;0.20;;;18.50;99.90;;;;;;5033741;28;20068;-88
2021/07/14 10:36:36;;;;;;;0.22;0.22;;;18.50;99.90;;;;;;5037596;28;20118;-88
2021/07/14 10:39:12;;;;;;;0.08;0.08;;;18.10;1.00;;;;;;5031573;28;20493;-88
2021/07/14 10:41:39;;;;;;;0.43;0.43;;;19.50;99.90;;;;;;5050022;28;20026;-90
2021/07/14 10:44:06;;;;;;;1.23;0.25;;;21.30;1.00;;;;;;5036375;28;20061;-87
2021/07/14 10:46:33;;;;;;;0.30;0.30;;;22.80;1.00;;;;;;5041078;28;20024;-87
2021/07/14 10:49:01;;;;;;;0.47;0.30;;;24.00;99.90;;;;;;5036806;28;20025;-87
2021/07/14 10:51:31;;;;;;;0.85;0.43;;;27.50;99.90;;;;;;5029744;28;20040;-89
2021/07/14 10:54:06;;;;;;;0.47;0.43;;;26.70;99.90;;;;;;5034530;28;20021;-90
2021/07/14 10:56:35;;;;;;;;;;;26.60;99.90;;;;;;5031258;28;20131;-89
2021/07/14 10:59:05;;;;;;;0.32;0.32;;;26.20;99.90;;;;;;5037758;28;19948;-89
2021/07/14 11:01:45;;;;;;;2.55;1.25;;;25.50;99.90;;;;;;5029176;28;20068;-90
2021/07/14 11:04:37;;;;;;;1.40;1.02;;;22.50;99.90;;;;;;5030296;28;20071;-91
2021/07/14 11:07:08;;;;;;;0.20;0.20;;;22.70;99.90;;;;;;5032182;28;20134;-89
2021/07/14 11:10:05;;;;;;;0.03;0.03;;;27.70;99.90;;;;;;5043133;28;20021;-90
2021/07/14 11:12:37;;;;;;;0.32;0.32;;;27.60;99.90;;;;;;5037813;28;20073;-91
2021/07/14 11:15:12;;;;;;;0.13;0.13;;;26.70;99.90;;;;;;5035207;28;20045;-89
2021/07/14 11:17:39;;;;;;;0.10;0.10;;;30.40;99.90;;;;;;5031663;28;20116;-91
2021/07/14 11:20:08;;;;;;;0.10;0.10;;;28.80;99.90;;;;;;5032290;28;20086;-90
2021/07/14 11:22:34;;;;;;;0.43;0.38;;;29.40;99.90;;;;;;5036124;28;20029;-91
2021/07/14 11:25:01;;;;;;;0.15;0.15;;;28.10;99.90;;;;;;5028921;28;20021;-89
2021/07/14 11:27:26;;;;;;;;;;;27.00;99.90;;;;;;5031581;28;20033;-89
2021/07/14 11:29:57;;;;;;;0.30;0.30;;;25.10;99.90;;;;;;5027776;28;19915;-90
2021/07/14 11:32:38;;;;;;;0.20;0.20;;;22.90;99.90;;;;;;5033916;28;20053;-90
2021/07/14 11:35:14;;;;;;;0.98;0.82;;;22.40;99.90;;;;;;5029666;28;20117;-90
2021/07/14 11:37:44;;;;;;;0.22;0.22;;;22.80;99.90;;;;;;5032734;28;20091;-90
2021/07/14 11:40:19;;;;;;;0.20;0.20;;;24.70;99.90;;;;;;5036811;28;20055;-91
2021/07/14 11:42:56;;;;;;;0.22;0.10;;;24.70;99.90;;;;;;5032005;28;20575;-92
2021/07/14 11:45:34;;;;;;;0.10;0.10;;;24.60;99.90;;;;;;5039963;28;20111;-93
2021/07/14 11:48:04;;;;;;;0.15;0.15;;;24.00;99.90;;;;;;5032146;28;20064;-91
2021/07/14 11:50:55;;;;;;;0.20;0.20;;;23.00;99.90;;;;;;5046899;28;20867;-91
2021/07/14 11:53:32;;;;;;;5.18;0.15;;;23.50;99.90;;;;;;5041696;28;20071;-89
2021/07/14 11:56:10;;;;;;;1.23;0.15;;;23.00;99.90;;;;;;5031496;28;20129;-91
2021/07/14 11:58:42;;;;;;;0.00;0.00;;;23.50;99.90;;;;;;5046927;28;20033;-90
2021/07/14 12:01:17;;;;;;;0.10;0.10;;;22.80;99.90;;;;;;5040859;28;20068;-89
2021/07/14 12:06:42;;;;;;;0.15;0.15;;;21.50;99.90;;;;;;5035442;28;20036;-91
2021/07/14 12:09:15;;;;;;;0.17;0.17;;;21.10;99.90;;;;;;5039079;28;20036;-91
2021/07/14 12:11:49;;;;;;;0.22;0.13;;;22.10;99.90;;;;;;5035584;28;20029;-91
2021/07/14 12:14:26;;;;;;;0.13;0.10;;;22.70;99.90;;;;;;5039595;28;20040;-91
2021/07/14 12:17:01;;;;;;;0.08;0.08;;;22.30;99.90;;;;;;5039104;28;20167;-91
2021/07/14 12:19:33;;;;;;;0.00;0.00;;;21.60;99.90;;;;;;5049732;28;20029;-89
2021/07/14 12:22:18;;;;;;;0.73;0.32;;;21.40;99.90;;;;;;5037541;28;20065;-90
2021/07/14 12:24:53;;;;;;;0.47;0.20;;;21.00;99.90;;;;;;5039697;28;20033;-90
2021/07/14 12:27:27;;;;;;;0.38;0.38;;;20.90;99.90;;;;;;5030420;28;20105;-90
2021/07/14 12:29:59;;;;;;;0.30;0.30;;;20.80;99.90;;;;;;5028961;28;20128;-88
2021/07/14 12:32:56;;;;;;;0.00;0.00;;;20.50;99.90;;;;;;5034841;28;20037;-89
2021/07/14 12:35:22;;;;;;;0.63;0.30;;;20.50;99.90;;;;;;5028002;28;20064;-89
2021/07/14 12:37:50;;;;;;;1.00;0.40;;;20.90;99.90;;;;;;5028971;28;20065;-88
2021/07/14 12:40:28;;;;;;;0.00;0.00;;;20.90;99.90;;;;;;5043303;28;20492;-89
2021/07/14 12:42:56;;;;;;;0.20;0.20;;;20.60;99.90;;;;;;5049040;28;20036;-88
2021/07/14 12:45:35;;;;;;;0.08;0.08;;;20.60;99.90;;;;;;5049226;28;20033;-89
2021/07/14 12:48:03;;;;;;;0.13;0.13;;;20.40;99.90;;;;;;5049604;28;20033;-90
2021/07/14 12:50:30;;;;;;;0.20;0.20;;;20.00;99.90;;;;;;5049627;28;20109;-89
2021/07/14 12:52:57;;;;;;;0.13;0.13;;;20.40;99.90;;;;;;5049631;28;20029;-89
2021/07/14 12:55:24;;;;;;;0.22;0.22;;;20.10;99.90;;;;;;5030594;28;20037;-89
2021/07/14 12:57:53;;;;;;;0.17;0.17;;;20.20;99.90;;;;;;5036907;28;20064;-89
2021/07/14 13:00:22;;;;;;;0.20;0.20;;;20.20;99.90;;;;;;5037516;28;20097;-89
2021/07/14 13:02:56;;;;;;;0.00;0.00;;;20.10;99.90;;;;;;5029018;28;20033;-89
2021/07/14 13:05:23;;;;;;;0.10;0.10;;;20.50;99.90;;;;;;5027973;28;20033;-89
2021/07/14 13:08:12;;;;;;;0.00;0.00;;;20.50;99.90;;;;;;5029488;28;20034;-89
2021/07/14 13:10:39;;;;;;;0.10;0.10;;;20.80;99.90;;;;;;5029051;28;20044;-89
2021/07/14 13:13:09;;;;;;;0.00;0.00;;;21.70;99.90;;;;;;5044050;28;20520;-88
2021/07/14 13:15:35;;;;;;;0.55;0.45;;;21.70;99.90;;;;;;5029440;28;20025;-89